createdAt,value
2023-01-20T00:01:38.947Z,1.80
2023-01-20T00:04:07.553Z,1.80
2023-01-20T00:06:35.949Z,1.80
2023-01-20T00:09:06.361Z,1.80
2023-01-20T00:11:34.924Z,1.70
2023-01-20T00:14:03.971Z,1.60
2023-01-20T00:16:33.492Z,1.80
2023-01-20T00:19:01.879Z,1.80
2023-01-20T00:21:30.348Z,1.80
2023-01-20T00:23:58.503Z,1.80
2023-01-20T00:26:28.334Z,1.70
2023-01-20T00:28:57.772Z,1.70
2023-01-20T00:31:27.831Z,1.70
2023-01-20T00:33:58.076Z,1.80
2023-01-20T00:36:28.440Z,1.80
2023-01-20T00:38:56.586Z,1.80
2023-01-20T00:41:25.206Z,1.70
2023-01-20T00:43:54.726Z,1.60
2023-01-20T00:46:23.400Z,1.70
2023-01-20T00:48:51.558Z,1.70
2023-01-20T00:51:19.910Z,1.70
2023-01-20T00:53:48.039Z,1.70
2023-01-20T00:56:16.169Z,1.80
2023-01-20T00:58:45.382Z,1.80
2023-01-20T01:01:16.370Z,1.80
2023-01-20T01:03:45.668Z,1.80
2023-01-20T01:06:16.768Z,1.80
2023-01-20T01:08:45.655Z,1.80
2023-01-20T01:11:14.609Z,1.70
2023-01-20T01:13:42.997Z,1.70
2023-01-20T01:16:14.688Z,1.50
2023-01-20T01:18:43.164Z,1.50
2023-01-20T01:21:13.401Z,1.60
2023-01-20T01:23:41.565Z,1.70
2023-01-20T01:26:10.503Z,1.70
2023-01-20T01:28:38.763Z,1.80
2023-01-20T01:31:08.537Z,1.80
2023-01-20T01:33:38.059Z,1.70
2023-01-20T01:36:08.603Z,1.60
2023-01-20T01:38:39.191Z,1.60
2023-01-20T01:41:13.496Z,1.60
2023-01-20T01:44:10.374Z,1.60
2023-01-20T01:46:43.981Z,1.60
2023-01-20T01:49:24.958Z,1.60
2023-01-20T01:51:59.895Z,1.60
2023-01-20T01:54:36.960Z,1.70
2023-01-20T01:57:07.575Z,1.60
2023-01-20T01:59:39.085Z,1.70
2023-01-20T02:02:09.413Z,1.80
2023-01-20T02:04:45.253Z,1.70
2023-01-20T02:07:21.526Z,1.60
2023-01-20T02:09:51.187Z,1.50
2023-01-20T02:12:27.469Z,1.50
2023-01-20T02:15:02.871Z,1.60
2023-01-20T02:17:37.200Z,1.60
2023-01-20T02:20:40.479Z,1.70
2023-01-20T02:23:16.982Z,1.70
2023-01-20T02:26:20.942Z,1.70
2023-01-20T02:29:34.064Z,1.60
2023-01-20T02:32:23.092Z,1.70
2023-01-20T02:34:59.054Z,1.70
2023-01-20T02:37:31.284Z,1.60
2023-01-20T02:40:14.160Z,1.60
2023-01-20T02:42:51.905Z,1.70
2023-01-20T02:45:25.468Z,1.70
2023-01-20T02:48:23.881Z,1.60
2023-01-20T02:51:03.626Z,1.60
2023-01-20T02:53:37.848Z,1.70
2023-01-20T02:56:07.632Z,1.70
2023-01-20T02:58:43.163Z,1.60
2023-01-20T03:01:21.157Z,1.70
2023-01-20T03:03:57.696Z,1.70
2023-01-20T03:06:35.065Z,1.70
2023-01-20T03:09:10.765Z,1.60
2023-01-20T03:11:45.409Z,1.50
2023-01-20T03:14:16.030Z,1.40
2023-01-20T03:16:48.476Z,1.40
2023-01-20T03:19:20.610Z,1.40
2023-01-20T03:21:53.785Z,1.40
2023-01-20T03:24:23.346Z,1.40
2023-01-20T03:26:53.679Z,1.40
2023-01-20T03:29:27.629Z,1.60
2023-01-20T03:32:08.715Z,1.50
2023-01-20T03:34:43.412Z,1.50
2023-01-20T03:37:14.181Z,1.50
2023-01-20T03:39:44.764Z,1.50
2023-01-20T03:42:20.066Z,1.50
2023-01-20T03:45:03.550Z,1.40
2023-01-20T03:47:48.073Z,1.50
2023-01-20T03:50:36.760Z,1.50
2023-01-20T03:53:13.505Z,1.50
2023-01-20T03:55:47.385Z,1.60
2023-01-20T03:58:20.718Z,1.40
2023-01-20T04:00:54.508Z,1.40
2023-01-20T04:03:28.725Z,1.40
2023-01-20T04:06:01.569Z,1.40
2023-01-20T04:08:43.288Z,1.50
2023-01-20T04:11:13.278Z,1.40
2023-01-20T04:13:45.019Z,1.40
2023-01-20T04:16:20.533Z,1.30
2023-01-20T04:18:53.491Z,1.30
2023-01-20T04:21:30.478Z,1.40
2023-01-20T04:24:06.414Z,1.40
2023-01-20T04:26:37.030Z,1.50
2023-01-20T04:29:13.088Z,1.40
2023-01-20T04:31:42.684Z,1.40
2023-01-20T04:34:13.946Z,1.40
2023-01-20T04:36:48.239Z,1.40
2023-01-20T04:39:18.655Z,1.40
2023-01-20T04:41:58.115Z,1.30
2023-01-20T04:44:28.889Z,1.10
2023-01-20T04:47:00.087Z,1.30
2023-01-20T04:49:29.647Z,1.30
2023-01-20T04:51:59.896Z,1.30
2023-01-20T04:54:29.266Z,1.20
2023-01-20T04:56:58.980Z,1.20
2023-01-20T04:59:28.356Z,1.20
2023-01-20T05:01:56.610Z,1.20
2023-01-20T05:04:28.037Z,1.00
2023-01-20T05:06:58.301Z,0.90
2023-01-20T05:09:29.307Z,0.90
2023-01-20T05:11:58.710Z,0.90
2023-01-20T05:14:30.463Z,0.90
2023-01-20T05:16:58.791Z,0.80
2023-01-20T05:19:26.962Z,0.80
2023-01-20T05:21:55.408Z,0.70
2023-01-20T05:24:26.975Z,0.70
2023-01-20T05:27:01.686Z,0.70
2023-01-20T05:29:30.215Z,0.70
2023-01-20T05:32:00.489Z,0.60
2023-01-20T05:34:31.225Z,0.60
2023-01-20T05:37:01.234Z,0.60
2023-01-20T05:39:30.140Z,0.60
2023-01-20T05:41:59.655Z,0.60
2023-01-20T05:44:31.423Z,0.50
2023-01-20T05:46:59.538Z,0.50
2023-01-20T05:49:27.699Z,0.50
2023-01-20T05:51:57.292Z,0.40
2023-01-20T05:54:28.326Z,0.30
2023-01-20T05:56:56.791Z,0.30
2023-01-20T05:59:26.666Z,0.20
2023-01-20T06:01:58.571Z,0.20
2023-01-20T06:04:30.763Z,0.20
2023-01-20T06:07:00.314Z,0.00
2023-01-20T06:09:28.431Z,0.00
2023-01-20T06:11:56.547Z,0.00
2023-01-20T06:14:30.864Z,0.00
2023-01-20T06:17:01.400Z,0.00
2023-01-20T06:19:29.560Z,-3276.70
2023-01-20T06:21:58.985Z,0.00
2023-01-20T06:24:29.579Z,-3276.70
2023-01-20T06:26:59.167Z,-3276.70
2023-01-20T06:29:28.693Z,-3276.70
2023-01-20T06:31:57.229Z,-3276.70
2023-01-20T06:34:28.006Z,-3276.60
2023-01-20T06:36:58.394Z,-3276.60
2023-01-20T06:39:26.664Z,-3276.70
2023-01-20T06:41:58.868Z,-3276.70
2023-01-20T06:44:29.861Z,-3276.60
2023-01-20T06:46:59.285Z,-3276.60
2023-01-20T06:49:28.470Z,-3276.70
2023-01-20T06:51:57.876Z,-3276.70
2023-01-20T06:54:27.267Z,-3276.70
2023-01-20T06:56:55.997Z,-3276.70
2023-01-20T06:59:26.423Z,-3276.60
2023-01-20T07:01:56.512Z,-3276.60
2023-01-20T07:04:28.233Z,-3276.50
2023-01-20T07:06:58.389Z,-3276.40
2023-01-20T07:09:27.997Z,-3276.50
2023-01-20T07:11:56.302Z,-3276.50
2023-01-20T07:14:24.677Z,-3276.60
2023-01-20T07:16:52.880Z,-3276.60
2023-01-20T07:19:26.330Z,-3276.70
2023-01-20T07:21:56.953Z,-3276.70
2023-01-20T07:24:28.679Z,-3276.70
2023-01-20T07:26:56.818Z,-3276.70
2023-01-20T07:29:27.485Z,-3276.70
2023-01-20T07:31:56.125Z,0.00
2023-01-20T07:34:33.400Z,0.00
2023-01-20T07:37:02.794Z,0.00
2023-01-20T07:39:33.580Z,0.00
2023-01-20T07:42:02.832Z,0.10
2023-01-20T07:44:30.953Z,0.10
2023-01-20T07:47:00.427Z,0.20
2023-01-20T07:49:31.111Z,0.20
2023-01-20T07:52:01.327Z,0.20
2023-01-20T07:54:37.701Z,0.10
2023-01-20T07:57:05.951Z,0.10
2023-01-20T07:59:34.055Z,0.20
2023-01-20T08:02:04.716Z,0.30
2023-01-20T08:04:38.092Z,0.30
2023-01-20T08:07:08.406Z,0.30
2023-01-20T08:09:38.838Z,0.40
2023-01-20T08:12:11.488Z,0.40
2023-01-20T08:14:43.145Z,0.40
2023-01-20T08:17:13.573Z,0.50
2023-01-20T08:19:43.112Z,0.60
2023-01-20T08:22:11.268Z,0.60
2023-01-20T08:24:39.414Z,0.60
2023-01-20T08:27:07.558Z,0.50
2023-01-20T08:29:38.456Z,0.30
2023-01-20T08:32:07.091Z,0.40
2023-01-20T08:34:40.933Z,0.40
2023-01-20T08:37:14.534Z,0.50
2023-01-20T08:39:42.688Z,0.50
2023-01-20T08:42:11.953Z,0.70
2023-01-20T08:44:46.045Z,0.80
2023-01-20T08:47:14.188Z,0.80
2023-01-20T08:49:43.033Z,0.80
2023-01-20T08:52:16.409Z,0.80
2023-01-20T08:54:48.726Z,0.90
2023-01-20T08:57:17.067Z,0.90
2023-01-20T08:59:47.348Z,1.10
2023-01-20T09:02:16.852Z,1.20
2023-01-20T09:04:46.578Z,1.30
2023-01-20T09:07:19.763Z,1.40
2023-01-20T09:09:49.431Z,1.40
2023-01-20T09:12:18.774Z,1.50
2023-01-20T09:14:46.894Z,1.40
2023-01-20T09:17:15.070Z,1.40
2023-01-20T09:19:43.201Z,1.30
2023-01-20T09:22:11.351Z,1.40
2023-01-20T09:24:41.470Z,1.40
2023-01-20T09:27:09.619Z,1.50
2023-01-20T09:29:37.763Z,1.60
2023-01-20T09:32:06.233Z,1.70
2023-01-20T09:34:35.939Z,1.60
2023-01-20T09:37:18.445Z,1.70
2023-01-20T09:40:06.237Z,1.80
2023-01-20T09:43:03.075Z,1.80
2023-01-20T09:45:37.712Z,1.70
2023-01-20T09:48:29.512Z,1.80
2023-01-20T09:51:22.804Z,1.90
2023-01-20T09:54:04.857Z,1.90
2023-01-20T09:56:42.835Z,1.80
2023-01-20T09:59:19.816Z,1.90
2023-01-20T10:01:52.413Z,2.00
2023-01-20T10:04:29.931Z,2.20
2023-01-20T10:07:06.696Z,2.30
2023-01-20T10:09:44.376Z,2.30
2023-01-20T10:12:19.577Z,2.30
2023-01-20T10:14:57.162Z,2.30
2023-01-20T10:17:34.046Z,2.40
2023-01-20T10:20:09.172Z,2.40
2023-01-20T10:22:48.599Z,2.50
2023-01-20T10:25:22.722Z,2.60
2023-01-20T10:27:57.495Z,2.80
2023-01-20T10:30:32.383Z,3.10
2023-01-20T10:33:09.287Z,3.20
2023-01-20T10:35:41.029Z,3.10
2023-01-20T10:38:29.122Z,3.20
2023-01-20T10:41:07.893Z,3.30
2023-01-20T10:43:41.953Z,3.30
2023-01-20T10:46:33.819Z,3.30
2023-01-20T10:49:19.789Z,3.20
2023-01-20T10:51:59.992Z,3.20
2023-01-20T10:54:38.033Z,3.30
2023-01-20T10:57:11.801Z,3.30
2023-01-20T10:59:44.749Z,3.30
2023-01-20T11:02:18.719Z,3.20
2023-01-20T11:04:50.720Z,3.10
2023-01-20T11:07:19.877Z,3.10
2023-01-20T11:09:49.325Z,3.00
2023-01-20T11:12:20.400Z,3.00
2023-01-20T11:14:50.433Z,3.00
2023-01-20T11:17:20.971Z,3.10
2023-01-20T11:19:52.214Z,3.00
2023-01-20T11:22:26.846Z,3.00
2023-01-20T11:24:58.837Z,2.80
2023-01-20T11:27:29.997Z,2.90
2023-01-20T11:30:03.913Z,3.00
2023-01-20T11:32:35.071Z,3.10
2023-01-20T11:35:20.875Z,3.20
2023-01-20T11:37:49.303Z,3.30
2023-01-20T11:40:22.320Z,3.30
2023-01-20T11:42:52.792Z,3.40
2023-01-20T11:45:28.722Z,3.30
2023-01-20T11:48:07.124Z,3.20
2023-01-20T11:50:39.322Z,3.20
2023-01-20T11:53:23.405Z,3.10
2023-01-20T11:55:54.573Z,3.10
2023-01-20T11:58:25.132Z,3.00
2023-01-20T12:01:02.095Z,3.10
2023-01-20T12:04:15.175Z,3.10
2023-01-20T12:06:52.516Z,3.20
2023-01-20T12:09:24.291Z,3.40
2023-01-20T12:11:57.571Z,3.60
2023-01-20T12:14:30.133Z,3.70
2023-01-20T12:17:23.904Z,3.70
2023-01-20T12:20:07.612Z,3.60
2023-01-20T12:22:44.118Z,3.60
2023-01-20T12:25:19.967Z,3.80
2023-01-20T12:27:54.730Z,3.90
2023-01-20T12:30:39.284Z,3.90
2023-01-20T12:33:21.912Z,3.90
2023-01-20T12:36:25.757Z,3.90
2023-01-20T12:39:11.755Z,4.10
2023-01-20T12:41:57.521Z,4.40
2023-01-20T12:44:32.595Z,4.50
2023-01-20T12:47:08.889Z,4.50
2023-01-20T12:49:53.003Z,4.40
2023-01-20T12:52:31.993Z,4.50
2023-01-20T12:55:17.281Z,4.70
2023-01-20T12:58:08.386Z,4.90
2023-01-20T13:00:56.828Z,4.80
2023-01-20T13:03:47.448Z,4.80
2023-01-20T13:06:37.225Z,5.20
2023-01-20T13:09:18.816Z,5.10
2023-01-20T13:11:58.497Z,5.30
2023-01-20T13:14:32.439Z,4.90
2023-01-20T13:17:07.782Z,5.00
2023-01-20T13:19:39.549Z,5.30
2023-01-20T13:22:14.397Z,5.30
2023-01-20T13:24:45.985Z,5.30
2023-01-20T13:27:15.335Z,5.10
2023-01-20T13:29:56.121Z,4.80
2023-01-20T13:32:34.910Z,4.50
2023-01-20T13:35:04.283Z,4.40
2023-01-20T13:37:38.711Z,4.30
2023-01-20T13:40:51.896Z,4.10
2023-01-20T13:46:49.836Z,3.80
2023-01-20T13:49:26.866Z,3.90
2023-01-20T13:51:55.173Z,4.30
2023-01-20T13:54:43.997Z,4.40
2023-01-20T13:57:45.362Z,4.70
2023-01-20T14:00:18.634Z,5.00
2023-01-20T14:02:48.861Z,5.20
2023-01-20T14:05:32.375Z,5.50
2023-01-20T14:08:01.146Z,5.40
2023-01-20T14:10:30.949Z,5.40
2023-01-20T14:12:59.069Z,5.60
2023-01-20T14:15:41.139Z,6.00
2023-01-20T14:18:17.391Z,6.00
2023-01-20T14:21:03.428Z,5.80
2023-01-20T14:23:39.794Z,5.90
2023-01-20T14:26:12.510Z,5.70
2023-01-20T14:28:49.380Z,5.80
2023-01-20T14:31:20.374Z,5.80
2023-01-20T14:33:53.185Z,5.80
2023-01-20T14:36:22.784Z,5.70
2023-01-20T14:38:58.346Z,5.80
2023-01-20T14:41:36.640Z,5.80
2023-01-20T14:44:05.080Z,5.90
2023-01-20T14:46:35.217Z,6.00
2023-01-20T14:49:05.134Z,6.00
2023-01-20T14:51:34.928Z,5.80
2023-01-20T14:54:31.737Z,5.50
2023-01-20T14:57:05.248Z,5.40
2023-01-20T14:59:33.412Z,5.30
2023-01-20T15:02:06.939Z,5.10
2023-01-20T15:04:39.188Z,4.90
2023-01-20T15:07:07.476Z,4.60
2023-01-20T15:09:36.697Z,4.30
2023-01-20T15:12:42.684Z,3.90
2023-01-20T15:15:21.952Z,3.60
2023-01-20T15:18:19.585Z,3.50
2023-01-20T15:20:50.705Z,3.40
2023-01-20T15:23:22.989Z,3.40
2023-01-20T15:25:53.704Z,3.20
2023-01-20T15:28:25.765Z,3.20
2023-01-20T15:30:56.956Z,3.20
2023-01-20T15:33:26.030Z,3.20
2023-01-20T15:35:58.747Z,3.10
2023-01-20T15:38:31.596Z,3.00
2023-01-20T15:40:59.634Z,3.00
2023-01-20T15:43:27.933Z,3.00
2023-01-20T15:45:57.405Z,2.90
2023-01-20T15:48:25.544Z,2.80
2023-01-20T15:50:53.735Z,2.70
2023-01-20T15:53:21.920Z,2.50
2023-01-20T15:55:51.823Z,2.30
2023-01-20T15:58:26.797Z,2.40
2023-01-20T16:00:56.190Z,2.30
2023-01-20T16:03:26.737Z,2.30
2023-01-20T16:05:56.962Z,2.40
2023-01-20T16:08:30.657Z,2.30
2023-01-20T16:10:58.787Z,2.20
2023-01-20T16:13:26.919Z,2.20
2023-01-20T16:15:55.401Z,2.10
2023-01-20T16:18:24.964Z,2.10
2023-01-20T16:20:53.064Z,2.20
2023-01-20T16:23:21.243Z,2.10
2023-01-20T16:25:52.098Z,2.10
2023-01-20T16:28:24.119Z,2.00
2023-01-20T16:30:54.137Z,2.00
2023-01-20T16:33:25.786Z,2.00
2023-01-20T16:35:56.905Z,1.80
2023-01-20T16:38:26.465Z,1.90
2023-01-20T16:41:00.387Z,2.00
2023-01-20T16:43:29.263Z,2.00
2023-01-20T16:45:57.728Z,1.90
2023-01-20T16:48:27.697Z,2.00
2023-01-20T16:50:55.845Z,2.00
2023-01-20T16:53:24.042Z,2.00
2023-01-20T16:55:52.208Z,2.10
2023-01-20T16:58:20.354Z,2.10
2023-01-20T17:00:48.574Z,2.10
2023-01-20T17:03:16.809Z,2.10
2023-01-20T17:05:46.326Z,2.00
2023-01-20T17:08:14.538Z,2.00
2023-01-20T17:10:48.576Z,2.00
2023-01-20T17:13:16.719Z,2.00
2023-01-20T17:15:44.859Z,2.00
2023-01-20T17:18:12.989Z,2.00
2023-01-20T17:20:41.320Z,2.00
2023-01-20T17:23:10.841Z,1.90
2023-01-20T17:25:39.022Z,2.00
2023-01-20T17:28:07.239Z,1.90
2023-01-20T17:30:35.432Z,1.80
2023-01-20T17:33:03.579Z,1.70
2023-01-20T17:35:31.839Z,1.60
2023-01-20T17:37:59.991Z,1.60
2023-01-20T17:40:29.493Z,1.60
2023-01-20T17:42:57.637Z,1.60
2023-01-20T17:45:25.971Z,1.70
2023-01-20T17:47:54.189Z,1.60
2023-01-20T17:50:22.331Z,1.60
2023-01-20T17:52:51.808Z,1.50
2023-01-20T17:55:22.454Z,1.60
2023-01-20T17:57:56.105Z,1.40
2023-01-20T18:00:28.235Z,1.40
2023-01-20T18:02:57.574Z,1.40
2023-01-20T18:05:28.962Z,1.30
2023-01-20T18:07:57.285Z,1.20
2023-01-20T18:10:28.805Z,1.20
2023-01-20T18:12:58.375Z,1.10
2023-01-20T18:15:26.533Z,1.10
2023-01-20T18:17:54.678Z,1.10
2023-01-20T18:20:23.024Z,1.10
2023-01-20T18:22:51.388Z,1.10
2023-01-20T18:25:19.771Z,1.00
2023-01-20T18:27:47.883Z,0.90
2023-01-20T18:30:18.407Z,0.80
2023-01-20T18:32:46.887Z,0.80
2023-01-20T18:35:15.042Z,0.80
2023-01-20T18:37:43.162Z,0.80
2023-01-20T18:40:12.566Z,0.80
2023-01-20T18:42:40.729Z,0.80
2023-01-20T18:45:10.075Z,0.70
2023-01-20T18:47:39.917Z,0.50
2023-01-20T18:50:08.595Z,0.40
2023-01-20T18:52:36.819Z,0.40
2023-01-20T18:55:05.380Z,0.30
2023-01-20T18:57:33.547Z,0.30
2023-01-20T19:00:01.774Z,0.30
2023-01-20T19:02:29.987Z,0.30
2023-01-20T19:04:59.769Z,0.30
2023-01-20T19:07:28.095Z,0.30
2023-01-20T19:09:56.684Z,0.30
2023-01-20T19:12:24.855Z,0.30
2023-01-20T19:14:54.752Z,0.30
2023-01-20T19:17:22.915Z,0.20
2023-01-20T19:19:51.038Z,0.20
2023-01-20T19:22:20.555Z,0.10
2023-01-20T19:24:48.739Z,0.10
2023-01-20T19:27:16.887Z,0.10
2023-01-20T19:29:45.039Z,0.10
2023-01-20T19:32:13.274Z,0.00
2023-01-20T19:34:43.744Z,0.00
2023-01-20T19:37:11.899Z,0.00
2023-01-20T19:39:41.405Z,0.00
2023-01-20T19:42:09.524Z,-3276.70
2023-01-20T19:44:37.649Z,-3276.70
2023-01-20T19:47:05.820Z,0.00
2023-01-20T19:49:33.943Z,-3276.70
2023-01-20T19:52:02.121Z,-3276.70
2023-01-20T19:54:30.985Z,-3276.70
2023-01-20T19:57:00.623Z,-3276.70
2023-01-20T19:59:28.779Z,-3276.60
2023-01-20T20:01:56.987Z,-3276.70
2023-01-20T20:04:25.451Z,-3276.60
2023-01-20T20:06:53.732Z,-3276.60
2023-01-20T20:09:26.017Z,-3276.50
2023-01-20T20:11:56.167Z,-3276.50
2023-01-20T20:14:27.289Z,-3276.50
2023-01-20T20:16:55.432Z,-3276.50
2023-01-20T20:19:23.727Z,-3276.50
2023-01-20T20:21:52.213Z,-3276.40
2023-01-20T20:24:20.691Z,-3276.40
2023-01-20T20:26:49.576Z,-3276.50
2023-01-20T20:29:19.584Z,-3276.50
2023-01-20T20:31:49.218Z,-3276.60
2023-01-20T20:34:19.251Z,-3276.60
2023-01-20T20:36:47.931Z,-3276.40
2023-01-20T20:39:18.845Z,-3276.20
2023-01-20T20:41:47.180Z,-3276.30
2023-01-20T20:44:15.498Z,-3276.40
2023-01-20T20:46:44.359Z,-3276.30
2023-01-20T20:49:15.970Z,-3276.40
2023-01-20T20:51:44.159Z,-3276.40
2023-01-20T20:54:13.193Z,-3276.40
2023-01-20T20:56:41.531Z,-3276.40
2023-01-20T20:59:10.441Z,-3276.40
2023-01-20T21:01:44.478Z,-3276.30
2023-01-20T21:04:18.081Z,-3276.30
2023-01-20T21:06:48.875Z,-3276.40
2023-01-20T21:09:19.359Z,-3276.50
2023-01-20T21:11:48.431Z,-3276.50
2023-01-20T21:14:19.142Z,-3276.40
2023-01-20T21:16:47.304Z,-3276.40
2023-01-20T21:19:16.987Z,-3276.20
2023-01-20T21:21:45.131Z,-3276.10
2023-01-20T21:24:13.942Z,-3276.20
2023-01-20T21:26:43.124Z,-3276.20
2023-01-20T21:29:12.465Z,-3276.30
2023-01-20T21:31:40.700Z,-3276.40
2023-01-20T21:34:08.940Z,-3276.50
2023-01-20T21:36:41.535Z,-3276.50
2023-01-20T21:39:13.276Z,-3276.70
2023-01-20T21:41:41.717Z,-3276.70
2023-01-20T21:44:29.820Z,-3276.70
2023-01-20T21:46:58.680Z,-3276.70
2023-01-20T21:49:43.937Z,-3276.60
2023-01-20T21:52:33.037Z,-3276.70
2023-01-20T21:55:01.277Z,0.00
2023-01-20T21:57:30.154Z,-3276.70
2023-01-20T21:59:58.243Z,-3276.60
2023-01-20T22:02:29.601Z,-3276.60
2023-01-20T22:04:57.716Z,-3276.60
2023-01-20T22:07:27.674Z,-3276.50
2023-01-20T22:09:58.041Z,-3276.50
2023-01-20T22:12:26.523Z,-3276.60
2023-01-20T22:14:54.645Z,-3276.70
2023-01-20T22:17:22.778Z,-3276.70
2023-01-20T22:19:50.939Z,-3276.60
2023-01-20T22:22:19.803Z,-3276.60
2023-01-20T22:24:49.304Z,-3276.50
2023-01-20T22:27:17.512Z,-3276.50
2023-01-20T22:29:45.667Z,-3276.40
2023-01-20T22:32:14.220Z,-3276.30
2023-01-20T22:34:42.402Z,-3276.20
2023-01-20T22:37:10.577Z,-3276.20
2023-01-20T22:39:38.697Z,-3276.10
2023-01-20T22:42:08.312Z,-3276.20
2023-01-20T22:44:36.442Z,-3276.20
2023-01-20T22:47:05.859Z,-3276.20
2023-01-20T22:49:33.986Z,-3276.10
2023-01-20T22:52:02.167Z,-3276.20
2023-01-20T22:54:30.282Z,-3276.10
2023-01-20T22:56:58.443Z,-3276.10
2023-01-20T22:59:27.985Z,-3276.00
2023-01-20T23:01:56.152Z,-3276.00
2023-01-20T23:04:24.934Z,-3276.00
2023-01-20T23:06:53.194Z,-3275.90
2023-01-20T23:09:21.584Z,-3275.80
2023-01-20T23:11:50.688Z,-3275.50
2023-01-20T23:14:38.822Z,-3275.60
2023-01-20T23:17:08.408Z,-3275.70
2023-01-20T23:19:36.532Z,-3275.70
2023-01-20T23:22:04.689Z,-3275.70
2023-01-20T23:24:32.805Z,-3275.60
2023-01-20T23:27:00.892Z,-3275.60
2023-01-20T23:29:29.202Z,-3275.50
2023-01-20T23:31:58.094Z,-3275.60
2023-01-20T23:34:27.751Z,-3275.50
2023-01-20T23:36:55.955Z,-3275.50
2023-01-20T23:39:24.113Z,-3275.50
2023-01-20T23:41:53.016Z,-3275.60
2023-01-20T23:44:21.131Z,-3275.60
2023-01-20T23:46:49.260Z,-3275.60
2023-01-20T23:49:17.439Z,-3275.70
2023-01-20T23:51:46.997Z,-3275.70
2023-01-20T23:54:15.194Z,-3275.70
2023-01-20T23:56:43.278Z,-3275.70
2023-01-20T23:59:11.405Z,-3275.70
